Time;durP1;ratioP1;P1;durP2;ratioP2;P2;SDS_P1;SDS_P2;PMS_P1;PMS_P2;Temp;Humidity;BMP_temperature;BMP_pressure;BME280_temperature;BME280_humidity;BME280_pressure;Samples;Min_cycle;Max_cycle;Signal;HPM_P1;HPM_P2
2024/03/11 00:02:27;;;;;;;29.80;15.50;;;;;;;9.30;91.62;99861.00;5033704;28;20111;-26
2024/03/11 00:04:54;;;;;;;26.30;16.17;;;;;;;9.46;91.13;99862.56;5051401;28;20481;-26
2024/03/11 00:07:20;;;;;;;30.15;16.30;;;;;;;9.39;90.79;99858.03;5051366;28;20020;-26
2024/03/11 00:09:45;;;;;;;26.13;15.38;;;;;;;9.31;91.57;99846.69;5050930;28;20391;-26
2024/03/11 00:12:11;;;;;;;29.42;15.80;;;;;;;9.15;92.98;99845.16;5051556;28;20251;-26
2024/03/11 00:14:39;;;;;;;31.85;17.40;;;;;;;9.26;92.75;99835.84;5051841;28;20722;-26
2024/03/11 00:17:06;;;;;;;26.05;15.38;;;;;;;9.32;92.60;99843.03;5051037;28;20025;-26
2024/03/11 00:19:31;;;;;;;29.75;16.20;;;;;;;9.13;92.73;99842.69;5051503;28;20362;-26
2024/03/11 00:21:58;;;;;;;29.45;16.30;;;;;;;9.06;94.58;99846.28;5051160;28;20159;-26
2024/03/11 00:24:24;;;;;;;29.63;16.85;;;;;;;9.10;93.74;99827.16;5051335;28;20112;-26
2024/03/11 00:26:50;;;;;;;32.83;18.27;;;;;;;9.22;93.04;99838.06;5051060;28;20112;-26
2024/03/11 00:29:17;;;;;;;30.55;16.55;;;;;;;9.19;92.98;99849.06;5050984;28;20458;-26
2024/03/11 00:31:42;;;;;;;38.40;18.92;;;;;;;9.39;92.26;99847.41;5050981;28;20545;-26
2024/03/11 00:34:08;;;;;;;32.35;16.92;;;;;;;9.28;92.54;99839.94;5050922;28;20119;-30
2024/03/11 00:36:34;;;;;;;33.88;18.52;;;;;;;9.16;93.04;99836.19;5051050;28;20074;-26
2024/03/11 00:39:01;;;;;;;32.33;18.40;;;;;;;9.13;93.65;99820.63;5051336;28;20520;-26
2024/03/11 00:41:27;;;;;;;32.38;18.60;;;;;;;9.04;93.92;99804.00;5051250;28;20081;-27
2024/03/11 00:43:52;;;;;;;31.48;18.08;;;;;;;9.07;94.12;99816.09;5051341;28;20437;-26
2024/03/11 00:46:18;;;;;;;33.88;17.48;;;;;;;9.12;93.81;99819.81;5050888;28;20036;-26
2024/03/11 00:48:44;;;;;;;32.22;18.48;;;;;;;8.87;94.14;99815.91;5050787;28;20408;-26
2024/03/11 00:51:10;;;;;;;31.38;17.58;;;;;;;9.05;94.21;99820.78;5051167;28;20021;-26
2024/03/11 00:53:36;;;;;;;33.25;17.83;;;;;;;8.87;94.94;99821.22;5051006;28;20017;-26
2024/03/11 00:56:02;;;;;;;33.17;18.13;;;;;;;8.68;95.56;99812.91;5051095;28;20028;-26
2024/03/11 00:58:30;;;;;;;32.00;17.48;;;;;;;8.67;96.00;99808.59;5050607;28;20021;-26
2024/03/11 01:00:55;;;;;;;33.63;19.35;;;;;;;8.97;95.15;99827.03;5050584;28;20048;-26
2024/03/11 01:03:22;;;;;;;37.65;18.73;;;;;;;8.73;95.56;99815.78;5050902;28;20064;-26
2024/03/11 01:05:49;;;;;;;35.25;19.20;;;;;;;9.09;94.28;99798.16;5037539;28;20501;-26
2024/03/11 01:08:15;;;;;;;33.35;17.67;;;;;;;8.91;94.15;99802.09;5050694;28;20021;-26
2024/03/11 01:10:40;;;;;;;33.03;18.58;;;;;;;8.77;94.85;99806.44;5050936;28;20439;-25
2024/03/11 01:13:05;;;;;;;32.42;17.98;;;;;;;8.67;95.58;99813.09;5050580;28;20021;-25
2024/03/11 01:15:31;;;;;;;34.05;17.42;;;;;;;8.60;96.21;99816.50;5050607;28;20386;-25
2024/03/11 01:17:57;;;;;;;35.80;17.42;;;;;;;8.72;95.49;99811.50;5051077;28;20021;-26
2024/03/11 01:20:24;;;;;;;33.45;18.23;;;;;;;8.79;94.66;99811.56;5052066;28;20416;-26
2024/03/11 01:22:50;;;;;;;32.00;17.48;;;;;;;8.99;93.75;99828.50;5055462;28;20025;-25
2024/03/11 01:25:15;;;;;;;30.67;17.48;;;;;;;9.04;93.08;99835.06;5055462;28;20395;-28
2024/03/11 01:27:41;;;;;;;32.38;18.67;;;;;;;9.03;92.79;99812.19;5055000;28;20078;-27
2024/03/11 01:30:07;;;;;;;34.83;16.98;;;;;;;8.68;94.85;99825.31;5055504;28;20433;-24
2024/03/11 01:32:37;;;;;;;33.60;18.25;;;;;;;9.06;93.23;99823.22;5055055;28;20031;-25
2024/03/11 01:35:03;;;;;;;32.35;17.40;;;;;;;8.97;93.22;99829.69;5054735;28;20025;-26
2024/03/11 01:37:29;;;;;;;30.63;17.42;;;;;;;9.13;92.96;99833.91;5054864;28;20032;-26
2024/03/11 01:39:54;;;;;;;31.25;17.40;;;;;;;9.17;92.20;99835.16;5055144;28;20101;-26
2024/03/11 01:42:20;;;;;;;32.90;17.25;;;;;;;9.30;91.18;99847.72;5054909;28;20381;-26
2024/03/11 01:44:50;;;;;;;33.83;18.02;;;;;;;9.11;92.90;99851.88;5054873;28;20029;-26
2024/03/11 01:47:21;;;;;;;36.15;19.05;;;;;;;9.18;91.54;99845.59;5054715;28;20485;-26
2024/03/11 01:49:51;;;;;;;33.67;17.38;;;;;;;9.10;92.03;99855.53;5054599;28;20447;-26
2024/03/11 01:52:18;;;;;;;;;;;;;;;8.97;92.04;99858.91;5055081;28;20039;-26
2024/03/11 01:54:45;;;;;;;28.83;16.67;;;;;;;9.04;92.17;99859.75;5055340;28;19955;-27
2024/03/11 01:57:12;;;;;;;34.63;18.00;;;;;;;8.82;94.02;99860.78;5054885;28;20029;-27
2024/03/11 01:59:38;;;;;;;32.80;17.45;;;;;;;8.85;93.27;99852.44;5054358;28;20025;-27
2024/03/11 02:02:07;;;;;;;30.85;16.85;;;;;;;8.94;93.24;99862.72;5054757;28;20047;-27
2024/03/11 02:04:36;;;;;;;32.90;17.55;;;;;;;9.01;92.76;99862.81;5054882;28;20051;-27
2024/03/11 02:07:05;;;;;;;33.63;18.02;;;;;;;8.83;93.78;99857.94;5054345;28;20029;-27
2024/03/11 02:09:31;;;;;;;30.90;18.00;;;;;;;8.65;94.62;99858.38;5054563;28;20025;-27
2024/03/11 02:11:56;;;;;;;34.63;17.95;;;;;;;8.75;94.80;99847.44;5054501;28;20083;-27
2024/03/11 02:14:22;;;;;;;33.20;17.85;;;;;;;8.87;93.74;99845.94;5054448;28;20021;-27
2024/03/11 02:16:48;;;;;;;32.72;17.52;;;;;;;8.84;93.63;99848.16;5054153;28;20564;-27
2024/03/11 02:19:15;;;;;;;32.22;17.13;;;;;;;9.13;91.94;99840.03;5054073;28;20411;-27
2024/03/11 02:21:47;;;;;;;30.80;17.02;;;;;;;9.18;91.65;99842.13;5054293;28;20099;-27
2024/03/11 02:24:16;;;;;;;30.85;16.88;;;;;;;8.81;92.44;99838.72;5053762;28;20096;-27
2024/03/11 02:26:51;;;;;;;32.53;17.55;;;;;;;9.08;93.01;99828.34;5054167;28;20071;-27
2024/03/11 02:29:17;;;;;;;30.65;17.05;;;;;;;9.16;91.56;99826.38;5054352;28;20028;-27
2024/03/11 02:31:44;;;;;;;34.65;17.77;;;;;;;8.91;92.87;99827.78;5054248;28;20109;-27
2024/03/11 02:34:09;;;;;;;32.35;17.30;;;;;;;8.83;92.72;99828.72;5053774;28;20025;-29
2024/03/11 02:36:36;;;;;;;31.35;17.35;;;;;;;8.85;93.38;99826.72;5052091;28;20028;-27
2024/03/11 02:39:05;;;;;;;32.35;17.70;;;;;;;8.85;94.08;99829.38;5033835;28;20512;-27
2024/03/11 02:41:32;;;;;;;34.83;17.95;;;;;;;9.08;92.98;99818.56;5034087;28;20128;-27
2024/03/11 02:43:57;;;;;;;30.27;16.13;;;;;;;8.67;93.31;99821.03;5033590;28;20033;-27
2024/03/11 02:46:23;;;;;;;33.58;18.20;;;;;;;8.52;94.75;99813.94;5033465;28;20025;-26
2024/03/11 02:48:48;;;;;;;36.55;19.23;;;;;;;8.94;93.26;99822.09;5033445;28;20032;-26
2024/03/11 02:51:13;;;;;;;34.33;17.77;;;;;;;8.65;93.74;99821.22;5033638;28;20068;-26
2024/03/11 02:53:40;;;;;;;35.55;18.27;;;;;;;8.67;94.12;99823.69;5033622;28;20108;-26
2024/03/11 02:56:07;;;;;;;33.55;18.55;;;;;;;8.68;95.29;99812.06;5033335;28;20028;-26
2024/03/11 02:58:34;;;;;;;33.25;17.77;;;;;;;8.64;94.06;99816.91;5042308;28;20029;-26
2024/03/11 03:01:01;;;;;;;32.22;17.83;;;;;;;8.25;96.19;99812.81;5053282;28;20159;-27
2024/03/11 03:03:26;;;;;;;30.92;16.92;;;;;;;8.35;96.16;99802.72;5053341;28;20462;-26
2024/03/11 03:05:51;;;;;;;34.47;18.85;;;;;;;8.55;95.71;99802.16;5038446;28;20029;-26
2024/03/11 03:08:17;;;;;;;32.53;17.70;;;;;;;8.50;96.63;99805.34;5047400;28;20476;-27
2024/03/11 03:10:42;;;;;;;34.75;18.17;;;;;;;8.44;95.91;99800.00;5053334;28;20493;-26
2024/03/11 03:13:07;;;;;;;34.38;18.80;;;;;;;8.41;95.45;99809.09;5053216;28;20025;-26
2024/03/11 03:15:33;;;;;;;32.70;17.75;;;;;;;8.38;95.69;99807.66;5053345;28;20025;-27
2024/03/11 03:17:58;;;;;;;36.72;18.50;;;;;;;8.49;95.91;99805.53;5052400;28;20020;-26
2024/03/11 03:20:23;;;;;;;35.70;18.90;;;;;;;8.64;94.33;99806.31;5053192;28;20032;-26
2024/03/11 03:22:49;;;;;;;37.25;18.92;;;;;;;8.42;96.29;99802.84;5053228;28;20030;-26
2024/03/11 03:25:14;;;;;;;40.60;20.65;;;;;;;8.39;96.57;99809.28;5052618;28;20025;-26
2024/03/11 03:27:40;;;;;;;34.22;18.33;;;;;;;8.08;99.05;99806.09;5052930;28;20020;-26
2024/03/11 03:30:06;;;;;;;35.60;19.13;;;;;;;8.30;97.75;99806.94;5052861;28;20025;-25
2024/03/11 03:32:33;;;;;;;36.28;19.23;;;;;;;8.32;96.48;99807.56;5052772;28;20048;-26
2024/03/11 03:34:59;;;;;;;33.22;18.20;;;;;;;8.33;96.19;99810.03;5052697;28;20055;-26
2024/03/11 03:37:24;;;;;;;32.85;17.92;;;;;;;8.37;97.39;99815.78;5052586;28;20554;-26
2024/03/11 03:39:50;;;;;;;38.00;20.13;;;;;;;8.41;96.55;99819.72;5052607;28;20025;-27
2024/03/11 03:42:15;;;;;;;35.05;18.33;;;;;;;8.65;95.06;99807.97;5052618;28;20017;-26
2024/03/11 03:44:40;;;;;;;35.53;18.83;;;;;;;8.56;95.98;99801.94;5051642;28;20078;-26
2024/03/11 03:47:06;;;;;;;34.03;18.20;;;;;;;8.49;94.88;99808.19;5052598;28;20055;-26
2024/03/11 03:49:32;;;;;;;36.95;18.75;;;;;;;8.16;94.84;99768.88;5052647;28;20485;-27
2024/03/11 03:51:59;;;;;;;37.42;18.58;;;;;;;8.24;96.11;99816.47;5052826;28;20127;-27
2024/03/11 03:54:27;;;;;;;33.58;18.60;;;;;;;8.21;97.02;99812.38;5052542;28;20096;-26
2024/03/11 03:56:53;;;;;;;34.22;18.80;;;;;;;8.12;97.72;99810.81;5052489;28;20088;-25
2024/03/11 03:59:19;;;;;;;34.72;19.58;;;;;;;8.06;98.04;99808.09;5052376;28;20029;-26
2024/03/11 04:01:44;;;;;;;38.40;19.35;;;;;;;8.18;98.35;99812.72;5052648;28;20028;-26
2024/03/11 04:04:09;;;;;;;36.85;19.80;;;;;;;8.16;99.02;99798.84;5052633;28;20485;-26
2024/03/11 04:06:35;;;;;;;37.03;19.25;;;;;;;8.27;98.04;99800.19;5052179;28;20032;-26
2024/03/11 04:09:00;;;;;;;35.90;19.20;;;;;;;8.00;98.20;99805.19;5052325;28;20107;-26
2024/03/11 04:11:26;;;;;;;40.90;20.20;;;;;;;8.27;97.81;99807.34;5052399;28;20095;-26
2024/03/11 04:13:52;;;;;;;36.83;20.15;;;;;;;8.31;96.40;99811.25;5052148;28;20091;-26
2024/03/11 04:16:18;;;;;;;34.75;19.45;;;;;;;8.01;97.75;99819.25;5052448;28;20475;-26
2024/03/11 04:18:43;;;;;;;35.97;19.15;;;;;;;7.91;98.67;99816.06;5051867;28;20473;-26
2024/03/11 04:21:09;;;;;;;39.00;20.35;;;;;;;8.23;97.28;99820.94;5051956;28;20029;-26
2024/03/11 04:23:34;;;;;;;36.88;20.40;;;;;;;8.13;97.33;99811.63;5049113;28;20018;-26
2024/03/11 04:26:01;;;;;;;37.88;19.80;;;;;;;8.16;97.20;99805.97;5031669;28;20107;-26
2024/03/11 04:28:29;;;;;;;38.95;19.88;;;;;;;8.34;96.76;99797.59;5031860;28;20030;-26
2024/03/11 04:30:55;;;;;;;37.05;20.02;;;;;;;8.26;96.65;99809.13;5031922;28;20029;-26
2024/03/11 04:33:22;;;;;;;37.50;19.38;;;;;;;7.98;97.93;99809.03;5031940;28;20061;-25
2024/03/11 04:35:48;;;;;;;41.83;19.48;;;;;;;7.95;97.83;99818.16;5039062;28;20029;-26
2024/03/11 04:38:15;;;;;;;39.83;19.95;;;;;;;8.14;97.35;99822.06;5047390;28;20532;-25
2024/03/11 04:40:43;;;;;;;37.78;19.85;;;;;;;8.19;96.69;99821.53;5035379;28;20078;-26
2024/03/11 04:43:09;;;;;;;37.33;20.27;;;;;;;8.17;97.65;99823.53;5036786;28;20123;-26
2024/03/11 04:45:38;;;;;;;35.67;19.55;;;;;;;7.98;98.02;99817.78;5031856;28;20106;-26
2024/03/11 04:48:05;;;;;;;38.22;19.70;;;;;;;8.11;97.63;99822.44;5030182;28;20017;-26
2024/03/11 04:50:32;;;;;;;38.88;19.88;;;;;;;8.01;97.34;99833.34;5031661;28;20030;-26
2024/03/11 04:53:05;;;;;;;39.72;19.92;;;;;;;7.97;98.41;99831.22;5031943;28;20029;-26
2024/03/11 04:55:32;;;;;;;40.55;21.05;;;;;;;8.09;97.89;99823.63;5031305;28;20390;-26
2024/03/11 04:57:59;;;;;;;41.35;21.02;;;;;;;8.10;97.73;99827.94;5048844;28;20025;-27
2024/03/11 05:00:28;;;;;;;39.92;20.58;;;;;;;7.96;98.49;99829.59;5051017;28;20104;-26
2024/03/11 05:02:58;;;;;;;41.30;19.83;;;;;;;7.75;99.51;99819.72;5050127;28;20028;-26
2024/03/11 05:05:31;;;;;;;38.88;20.67;;;;;;;8.01;98.45;99814.78;5051436;28;20044;-27
2024/03/11 05:07:57;;;;;;;41.30;20.60;;;;;;;8.04;98.82;99816.25;5051162;28;20028;-26
2024/03/11 05:10:23;;;;;;;43.90;21.52;;;;;;;8.30;97.40;99822.84;5050636;28;20025;-27
2024/03/11 05:12:49;;;;;;;40.42;20.48;;;;;;;7.86;96.84;99797.25;5050435;28;20358;-27
2024/03/11 05:15:17;;;;;;;42.33;22.55;;;;;;;7.92;98.33;99820.34;5050882;28;20036;-26
2024/03/11 05:17:42;;;;;;;42.58;21.70;;;;;;;8.12;97.65;99825.91;5048843;28;20021;-27
2024/03/11 05:20:12;;;;;;;42.15;21.92;;;;;;;7.97;98.41;99813.50;5030547;28;20032;-27
2024/03/11 05:22:41;;;;;;;44.28;22.52;;;;;;;8.20;97.89;99828.44;5031096;28;20025;-27
2024/03/11 05:25:07;;;;;;;46.15;22.23;;;;;;;8.05;98.14;99817.06;5031800;28;20025;-27
2024/03/11 05:27:34;;;;;;;44.13;22.15;;;;;;;7.91;98.79;99819.53;5031277;28;20041;-28
2024/03/11 05:29:59;;;;;;;40.08;20.73;;;;;;;7.87;99.54;99820.91;5030015;28;20053;-28
2024/03/11 05:32:25;;;;;;;39.10;21.08;;;;;;;7.99;98.81;99815.97;5030692;28;20112;-27
2024/03/11 05:34:50;;;;;;;40.33;21.75;;;;;;;8.00;98.72;99826.38;5030689;28;20135;-27
2024/03/11 05:37:16;;;;;;;45.28;22.23;;;;;;;7.83;99.81;99828.41;5030672;28;20112;-26
2024/03/11 05:39:43;;;;;;;46.72;22.88;;;;;;;7.81;100.00;99817.16;5030529;28;20056;-28
2024/03/11 05:42:09;;;;;;;43.95;22.48;;;;;;;8.08;99.35;99809.56;5030670;28;20029;-28
2024/03/11 05:44:34;;;;;;;42.65;21.88;;;;;;;8.19;98.07;99814.38;5030669;28;20100;-27
2024/03/11 05:47:00;;;;;;;40.35;20.90;;;;;;;8.09;98.03;99823.63;5030719;28;20493;-27
2024/03/11 05:49:28;;;;;;;45.90;21.67;;;;;;;7.92;98.04;99812.41;5030320;28;20101;-26
2024/03/11 05:51:55;;;;;;;45.17;21.90;;;;;;;7.86;99.21;99803.34;5029219;28;20086;-28
2024/03/11 05:54:23;;;;;;;38.47;21.13;;;;;;;7.85;99.66;99809.69;5030477;28;20083;-27
2024/03/11 05:56:56;;;;;;;40.13;21.77;;;;;;;7.89;99.48;99807.47;5030563;28;20477;-28
2024/03/11 05:59:28;;;;;;;39.58;21.60;;;;;;;7.99;100.00;99816.78;5029754;28;20029;-27
2024/03/11 06:01:55;;;;;;;45.90;22.98;;;;;;;8.00;100.00;99814.97;5030156;28;20029;-26
2024/03/11 06:04:21;;;;;;;43.53;22.88;;;;;;;7.96;100.00;99813.69;5030063;28;20030;-29
2024/03/11 06:06:47;;;;;;;47.75;23.35;;;;;;;8.21;99.26;99816.84;5030500;28;20045;-26
2024/03/11 06:09:14;;;;;;;51.00;24.15;;;;;;;8.37;97.71;99821.09;5034446;28;20021;-27
2024/03/11 06:11:41;;;;;;;44.92;21.95;;;;;;;8.27;97.80;99824.06;5034264;28;20025;-27
2024/03/11 06:14:07;;;;;;;47.70;23.25;;;;;;;8.19;99.23;99810.91;5034401;28;20021;-28
2024/03/11 06:16:33;;;;;;;49.05;23.52;;;;;;;8.20;99.56;99804.59;5034431;28;20031;-28
2024/03/11 06:18:59;;;;;;;47.10;23.45;;;;;;;8.17;99.85;99824.34;5034168;28;20030;-26
2024/03/11 06:21:25;;;;;;;50.33;24.63;;;;;;;8.34;98.93;99830.25;5034005;28;20028;-27
2024/03/11 06:23:51;;;;;;;47.35;24.10;;;;;;;8.32;98.04;99839.38;5034153;28;20022;-27
2024/03/11 06:26:17;;;;;;;50.65;24.48;;;;;;;8.19;98.92;99832.13;5034143;28;20046;-27
2024/03/11 06:28:42;;;;;;;47.42;22.38;;;;;;;7.99;99.39;99837.16;5034143;28;20049;-28
2024/03/11 06:31:08;;;;;;;46.08;23.65;;;;;;;8.09;100.00;99837.72;5033785;28;20025;-27
2024/03/11 06:33:35;;;;;;;51.92;25.33;;;;;;;8.13;100.00;99840.78;5033739;28;20030;-28
2024/03/11 06:36:00;;;;;;;52.35;24.75;;;;;;;8.38;98.92;99843.97;5033862;28;20470;-28
2024/03/11 06:38:25;;;;;;;54.70;24.98;;;;;;;8.37;98.71;99848.44;5033774;28;20036;-27
2024/03/11 06:40:51;;;;;;;52.13;25.40;;;;;;;8.16;100.00;99859.81;5033733;28;20045;-26
2024/03/11 06:43:16;;;;;;;55.60;25.17;;;;;;;8.32;99.39;99860.59;5034139;28;20516;-28
2024/03/11 06:45:42;;;;;;;51.78;23.98;;;;;;;8.41;98.27;99848.88;5034026;28;20496;-27
2024/03/11 06:48:10;;;;;;;50.58;24.20;;;;;;;8.36;98.08;99848.66;5033546;28;20033;-27
2024/03/11 06:50:35;;;;;;;50.40;25.33;;;;;;;8.31;98.94;99858.97;5033706;28;20087;-27
2024/03/11 06:53:01;;;;;;;50.20;24.80;;;;;;;8.32;99.28;99861.44;5033728;28;20112;-31
2024/03/11 06:55:26;;;;;;;45.40;22.95;;;;;;;8.49;97.05;99856.78;5033926;28;20041;-27
2024/03/11 06:57:52;;;;;;;46.20;23.83;;;;;;;8.45;97.07;99850.19;5033587;28;20024;-27
2024/03/11 07:00:17;;;;;;;52.47;24.52;;;;;;;8.46;97.45;99851.03;5033562;28;20022;-28
2024/03/11 07:02:49;;;;;;;45.25;23.20;;;;;;;8.71;96.08;99847.00;5034056;28;20048;-28
2024/03/11 07:05:15;;;;;;;44.40;23.88;;;;;;;8.71;95.83;99848.84;5033518;28;20034;-27
2024/03/11 07:07:42;;;;;;;51.30;26.75;;;;;;;8.49;97.06;99838.22;5036252;28;20113;-27
2024/03/11 07:10:10;;;;;;;48.63;24.40;;;;;;;8.50;97.00;99839.03;5053753;28;20036;-28
2024/03/11 07:12:37;;;;;;;55.17;24.73;;;;;;;8.69;96.02;99849.03;5053454;28;20036;-27
2024/03/11 07:15:03;;;;;;;45.80;24.80;;;;;;;8.70;96.50;99868.41;5053037;28;20025;-27
2024/03/11 07:17:29;;;;;;;44.33;23.95;;;;;;;8.67;97.30;99874.09;5052933;28;20021;-27
2024/03/11 07:19:56;;;;;;;55.05;25.20;;;;;;;8.71;97.21;99870.88;5053068;28;20037;-28
2024/03/11 07:22:22;;;;;;;43.10;24.67;;;;;;;8.70;96.90;99858.63;5052877;28;20033;-28
2024/03/11 07:24:48;;;;;;;42.78;22.77;;;;;;;8.88;95.66;99857.38;5053338;28;20453;-29
2024/03/11 07:27:16;;;;;;;41.33;22.73;;;;;;;8.94;96.65;99856.63;5052799;28;20057;-28
2024/03/11 07:29:41;;;;;;;48.72;23.50;;;;;;;8.75;97.85;99866.03;5052779;28;20032;-27
2024/03/11 07:32:07;;;;;;;38.85;21.58;;;;;;;8.84;95.99;99864.06;5052766;28;20504;-27
2024/03/11 07:34:32;;;;;;;41.15;20.13;;;;;;;8.87;95.72;99859.22;5052692;28;20028;-28
2024/03/11 07:36:57;;;;;;;44.50;21.58;;;;;;;8.78;96.51;99863.00;5052684;28;20397;-28
2024/03/11 07:39:24;;;;;;;38.25;20.58;;;;;;;8.86;96.89;99862.88;5052749;28;20485;-27
2024/03/11 07:41:50;;;;;;;38.45;20.50;;;;;;;8.98;95.83;99866.66;5052634;28;20515;-27
2024/03/11 07:44:17;;;;;;;38.08;20.83;;;;;;;9.10;94.93;99858.16;5052536;28;20505;-28
2024/03/11 07:46:46;;;;;;;42.03;20.60;;;;;;;9.17;94.73;99859.88;5051089;28;20104;-30
2024/03/11 07:49:11;;;;;;;42.40;23.02;;;;;;;9.42;93.45;99866.63;5053018;28;20035;-28
2024/03/11 07:51:36;;;;;;;38.05;21.67;;;;;;;9.54;92.56;99875.72;5035577;28;20025;-28
2024/03/11 07:54:02;;;;;;;39.40;21.80;;;;;;;9.49;93.13;99872.81;5041867;28;20061;-26
2024/03/11 07:56:27;;;;;;;41.70;21.15;;;;;;;9.38;93.12;99888.22;5052171;28;20424;-28
2024/03/11 07:58:53;;;;;;;40.20;21.02;;;;;;;9.55;92.86;99882.66;5052126;28;20060;-27
2024/03/11 08:01:21;;;;;;;38.55;21.75;;;;;;;9.53;91.73;99866.91;5052201;28;20078;-26
2024/03/11 08:03:46;;;;;;;37.78;20.92;;;;;;;9.55;92.10;99877.34;5052521;28;20480;-27
2024/03/11 08:06:12;;;;;;;37.50;21.38;;;;;;;9.51;93.50;99882.22;5051897;28;20028;-29
2024/03/11 08:08:37;;;;;;;37.72;20.90;;;;;;;10.03;91.06;99884.59;5052161;28;20057;-27
2024/03/11 08:11:03;;;;;;;40.38;22.83;;;;;;;9.93;91.27;99890.25;5051921;28;20032;-29
2024/03/11 08:13:28;;;;;;;38.22;21.67;;;;;;;10.09;89.57;99875.81;5045752;28;20029;-28
2024/03/11 08:15:54;;;;;;;37.75;21.23;;;;;;;10.15;89.74;99875.06;5048964;28;20036;-28
2024/03/11 08:18:22;;;;;;;37.85;20.65;;;;;;;10.28;89.54;99872.44;5052069;28;20035;-27
2024/03/11 08:20:47;;;;;;;36.45;20.77;;;;;;;10.48;88.70;99867.22;5052045;28;20108;-41
2024/03/11 08:23:13;;;;;;;34.72;21.08;;;;;;;10.45;88.60;99851.69;5045944;28;20108;-40
2024/03/11 08:25:44;;;;;;;33.10;19.70;;;;;;;10.51;86.99;99842.88;5043340;28;20125;-46
2024/03/11 08:28:14;;;;;;;34.03;20.15;;;;;;;10.65;87.50;99851.72;5044835;28;20452;-40
2024/03/11 08:30:39;;;;;;;34.95;21.17;;;;;;;10.76;85.87;99837.81;5043303;28;20060;-42
2024/03/11 08:33:05;;;;;;;37.65;20.90;;;;;;;10.86;87.53;99826.78;5043371;28;20060;-27
2024/03/11 08:35:30;;;;;;;35.42;20.13;;;;;;;11.08;85.32;99845.22;5039023;28;20398;-30
2024/03/11 08:37:55;;;;;;;29.83;18.45;;;;;;;11.13;85.55;99850.75;5044107;28;20358;-27
2024/03/11 08:40:22;;;;;;;30.58;18.83;;;;;;;11.05;86.20;99838.47;5045579;28;20489;-43
2024/03/11 08:42:48;;;;;;;32.63;19.40;;;;;;;10.69;86.20;99833.50;5043578;28;20029;-27
2024/03/11 08:45:18;;;;;;;37.83;19.35;;;;;;;10.66;87.53;99828.56;5043581;28;20409;-28
2024/03/11 08:47:44;;;;;;;34.40;20.15;;;;;;;10.64;86.25;99833.28;5043826;28;20409;-42
2024/03/11 08:50:10;;;;;;;34.25;19.50;;;;;;;10.34;88.30;99820.31;5043748;28;20482;-42
2024/03/11 08:52:35;;;;;;;34.63;20.20;;;;;;;10.65;87.68;99817.13;5044044;28;20055;-41
2024/03/11 08:55:07;;;;;;;33.53;18.70;;;;;;;10.88;86.94;99822.06;5042925;28;20017;-28
2024/03/11 08:57:34;;;;;;;35.10;18.83;;;;;;;10.91;85.55;99816.34;5042875;28;20016;-47
2024/03/11 09:00:05;;;;;;;36.97;18.98;;;;;;;11.03;86.50;99826.38;5043494;28;20035;-28
2024/03/11 09:02:32;;;;;;;35.13;19.23;;;;;;;11.06;85.34;99828.63;5045765;28;20059;-29
2024/03/11 09:04:57;;;;;;;32.97;18.83;;;;;;;11.03;84.68;99827.19;5040833;28;20029;-40
2024/03/11 09:07:23;;;;;;;33.25;19.30;;;;;;;10.91;85.09;99824.31;5042772;28;20432;-43
2024/03/11 09:09:48;;;;;;;33.88;19.05;;;;;;;10.70;86.27;99827.16;5043323;28;20103;-44
2024/03/11 09:12:14;;;;;;;31.00;18.83;;;;;;;10.81;86.64;99828.41;5043124;28;20024;-41
2024/03/11 09:14:40;;;;;;;33.90;19.55;;;;;;;10.29;89.44;99833.38;5044743;28;20384;-28
2024/03/11 09:17:05;;;;;;;33.92;18.50;;;;;;;10.29;90.90;99834.19;5042799;28;20101;-26
2024/03/11 09:19:31;;;;;;;32.97;19.40;;;;;;;10.63;87.68;99847.63;5042553;28;20079;-40
2024/03/11 09:21:57;;;;;;;28.15;16.85;;;;;;;10.61;88.17;99834.50;5042734;28;20021;-41
2024/03/11 09:24:24;;;;;;;30.25;19.08;;;;;;;10.88;87.46;99832.72;5042320;28;20068;-41
2024/03/11 09:26:51;;;;;;;29.33;18.92;;;;;;;11.03;86.97;99821.06;5042195;28;20132;-45
2024/03/11 09:29:17;;;;;;;32.67;19.55;;;;;;;11.06;86.55;99825.97;5042651;28;20071;-40
2024/03/11 09:31:42;;;;;;;29.23;18.55;;;;;;;11.15;86.20;99830.88;5044857;28;20013;-28
2024/03/11 09:34:08;;;;;;;32.00;19.48;;;;;;;11.51;85.11;99840.28;5042025;28;20493;-27
2024/03/11 09:36:35;;;;;;;31.45;18.75;;;;;;;11.55;84.68;99835.34;5041810;28;20021;-26
2024/03/11 09:39:02;;;;;;;32.45;19.35;;;;;;;11.78;83.29;99832.22;5044625;28;20033;-29
2024/03/11 09:41:37;;;;;;;27.92;17.65;;;;;;;11.76;82.21;99836.16;5039962;28;20036;-44
2024/03/11 09:44:04;;;;;;;29.75;17.90;;;;;;;11.78;82.27;99826.09;5046189;28;20024;-41
2024/03/11 09:46:30;;;;;;;27.92;17.35;;;;;;;11.73;83.02;99826.72;5043381;28;20056;-38
2024/03/11 09:48:57;;;;;;;28.35;17.35;;;;;;;11.68;83.77;99830.00;5046861;28;20458;-40
2024/03/11 09:51:23;;;;;;;28.42;17.67;;;;;;;11.55;84.37;99819.38;5046463;28;20025;-43
2024/03/11 09:53:52;;;;;;;27.23;17.00;;;;;;;11.68;84.17;99816.69;5046461;28;20032;-42
2024/03/11 09:56:20;;;;;;;29.88;18.42;;;;;;;11.62;84.09;99824.69;5046377;28;20096;-40
2024/03/11 09:58:55;;;;;;;28.52;18.42;;;;;;;11.88;82.42;99826.47;5045004;28;20041;-27
2024/03/11 10:01:24;;;;;;;34.72;17.30;;;;;;;11.63;84.85;99829.84;5047413;28;20032;-40
2024/03/11 10:03:50;;;;;;;27.83;17.35;;;;;;;11.95;82.51;99824.63;5048915;28;20048;-39
2024/03/11 10:06:16;;;;;;;31.15;17.45;;;;;;;11.83;82.49;99832.44;5044088;28;20029;-42
2024/03/11 10:08:45;;;;;;;27.08;16.85;;;;;;;11.82;83.86;99832.63;5045700;28;20415;-41
2024/03/11 10:11:18;;;;;;;29.58;18.35;;;;;;;12.00;81.71;99816.00;5045968;28;20029;-41
2024/03/11 10:13:43;;;;;;;28.10;16.88;;;;;;;12.12;81.68;99823.13;5046286;28;20398;-43
2024/03/11 10:16:24;;;;;;;28.80;17.08;;;;;;;12.17;81.62;99806.50;5046097;28;20093;-43
2024/03/11 10:18:55;;;;;;;28.80;18.23;;;;;;;12.57;80.22;99808.16;5047662;28;20024;-41
2024/03/11 10:21:20;;;;;;;32.25;17.63;;;;;;;12.37;80.79;99794.91;5045406;28;20029;-41
2024/03/11 10:23:48;;;;;;;26.83;16.27;;;;;;;12.32;80.17;99804.38;5045134;28;20533;-43
2024/03/11 10:26:18;;;;;;;26.52;17.15;;;;;;;12.17;81.33;99811.03;5044861;28;20110;-41
2024/03/11 10:28:47;;;;;;;26.92;17.58;;;;;;;12.02;81.60;99804.09;5046035;28;20101;-28
2024/03/11 10:31:33;;;;;;;27.30;17.08;;;;;;;12.21;81.48;99788.22;5043704;28;20036;-27
2024/03/11 10:34:12;;;;;;;27.35;17.75;;;;;;;12.62;79.85;99792.28;5046556;28;20036;-29
2024/03/11 10:36:40;;;;;;;27.65;16.90;;;;;;;12.44;79.89;99793.03;5042282;28;20464;-29
2024/03/11 10:39:09;;;;;;;31.77;17.55;;;;;;;12.69;79.60;99799.22;5046416;28;20112;-28
2024/03/11 10:41:38;;;;;;;24.70;16.08;;;;;;;12.84;78.50;99792.75;5044343;28;20028;-28
2024/03/11 10:44:13;;;;;;;26.67;17.63;;;;;;;13.08;77.25;99777.78;5045632;28;20021;-29
2024/03/11 10:46:39;;;;;;;26.40;17.30;;;;;;;12.95;77.91;99777.91;5042815;28;20017;-47
2024/03/11 10:49:12;;;;;;;26.25;16.08;;;;;;;13.27;76.28;99768.75;5046701;28;20492;-43
2024/03/11 10:51:45;;;;;;;25.90;16.10;;;;;;;13.45;75.22;99775.19;5044490;28;20040;-41
2024/03/11 10:54:28;;;;;;;28.85;17.45;;;;;;;13.13;75.94;99772.56;5043456;28;20135;-45
2024/03/11 10:56:55;;;;;;;29.55;18.88;;;;;;;13.19;76.60;99770.88;5047083;28;20067;-39
2024/03/11 10:59:22;;;;;;;31.75;18.60;;;;;;;12.96;77.62;99766.16;5045051;28;20021;-27
2024/03/11 11:01:58;;;;;;;26.15;17.73;;;;;;;12.97;77.18;99751.78;5042286;28;20051;-45
2024/03/11 11:04:33;;;;;;;27.60;17.60;;;;;;;13.50;75.52;99753.97;5043713;28;20034;-41
2024/03/11 11:06:59;;;;;;;23.10;15.52;;;;;;;12.91;77.04;99745.47;5048235;28;20020;-28
2024/03/11 11:09:28;;;;;;;24.63;16.13;;;;;;;13.27;75.95;99734.00;5042685;28;20026;-27
2024/03/11 11:11:54;;;;;;;29.30;16.77;;;;;;;13.29;75.88;99725.78;5043081;28;20452;-30
2024/03/11 11:14:24;;;;;;;23.00;15.93;;;;;;;13.15;77.51;99718.94;5044031;28;20102;-44
2024/03/11 11:16:51;;;;;;;27.25;16.45;;;;;;;13.18;77.54;99711.28;5043693;28;20490;-41
2024/03/11 11:19:25;;;;;;;23.33;15.25;;;;;;;13.08;78.20;99716.34;5037041;28;20024;-41
2024/03/11 11:21:51;;;;;;;22.08;15.00;;;;;;;13.01;77.42;99711.03;5045394;28;20021;-38